sensor_id;sensor_type;location;lat;lon;timestamp;P1;durP1;ratioP1;P2;durP2;ratioP2
59127;SDS011;44912;52.754;5.994;2023-06-19T00:00:51;9.52;;;7.22;;
59127;SDS011;44912;52.754;5.994;2023-06-19T00:03:17;11.90;;;7.15;;
59127;SDS011;44912;52.754;5.994;2023-06-19T00:05:42;9.10;;;7.15;;
59127;SDS011;44912;52.754;5.994;2023-06-19T00:08:08;10.23;;;6.95;;
59127;SDS011;44912;52.754;5.994;2023-06-19T00:10:33;10.38;;;6.95;;
59127;SDS011;44912;52.754;5.994;2023-06-19T00:12:59;9.73;;;7.18;;
59127;SDS011;44912;52.754;5.994;2023-06-19T00:15:25;9.38;;;6.88;;
59127;SDS011;44912;52.754;5.994;2023-06-19T00:17:50;10.07;;;7.43;;
59127;SDS011;44912;52.754;5.994;2023-06-19T00:20:16;11.32;;;7.40;;
59127;SDS011;44912;52.754;5.994;2023-06-19T00:22:42;11.68;;;7.55;;
59127;SDS011;44912;52.754;5.994;2023-06-19T00:25:08;10.95;;;7.57;;
59127;SDS011;44912;52.754;5.994;2023-06-19T00:27:34;10.20;;;6.97;;
59127;SDS011;44912;52.754;5.994;2023-06-19T00:29:59;9.20;;;7.20;;
59127;SDS011;44912;52.754;5.994;2023-06-19T00:32:26;10.07;;;7.70;;
59127;SDS011;44912;52.754;5.994;2023-06-19T00:34:52;11.98;;;7.63;;
59127;SDS011;44912;52.754;5.994;2023-06-19T00:37:18;9.90;;;7.53;;
59127;SDS011;44912;52.754;5.994;2023-06-19T00:39:43;9.30;;;6.90;;
59127;SDS011;44912;52.754;5.994;2023-06-19T00:42:09;9.70;;;7.30;;
59127;SDS011;44912;52.754;5.994;2023-06-19T00:44:35;9.55;;;7.00;;
59127;SDS011;44912;52.754;5.994;2023-06-19T00:47:01;9.32;;;7.00;;
59127;SDS011;44912;52.754;5.994;2023-06-19T00:49:29;12.02;;;6.90;;
59127;SDS011;44912;52.754;5.994;2023-06-19T00:51:56;9.30;;;6.88;;
59127;SDS011;44912;52.754;5.994;2023-06-19T00:54:22;10.18;;;7.10;;
59127;SDS011;44912;52.754;5.994;2023-06-19T00:56:48;9.20;;;6.88;;
59127;SDS011;44912;52.754;5.994;2023-06-19T00:59:18;10.13;;;6.82;;
59127;SDS011;44912;52.754;5.994;2023-06-19T01:01:44;10.35;;;6.85;;
59127;SDS011;44912;52.754;5.994;2023-06-19T01:04:11;9.60;;;7.05;;
59127;SDS011;44912;52.754;5.994;2023-06-19T01:06:41;9.68;;;6.53;;
59127;SDS011;44912;52.754;5.994;2023-06-19T01:09:15;11.32;;;7.05;;
59127;SDS011;44912;52.754;5.994;2023-06-19T01:11:52;9.63;;;6.78;;
59127;SDS011;44912;52.754;5.994;2023-06-19T01:14:25;10.20;;;6.90;;
59127;SDS011;44912;52.754;5.994;2023-06-19T01:16:53;9.15;;;7.38;;
59127;SDS011;44912;52.754;5.994;2023-06-19T01:19:20;10.23;;;7.03;;
59127;SDS011;44912;52.754;5.994;2023-06-19T01:21:46;12.68;;;7.25;;
59127;SDS011;44912;52.754;5.994;2023-06-19T01:24:13;11.55;;;7.30;;
59127;SDS011;44912;52.754;5.994;2023-06-19T01:26:39;11.52;;;6.85;;
59127;SDS011;44912;52.754;5.994;2023-06-19T01:29:05;10.95;;;6.93;;
59127;SDS011;44912;52.754;5.994;2023-06-19T01:31:33;10.45;;;7.00;;
59127;SDS011;44912;52.754;5.994;2023-06-19T01:34:06;9.55;;;6.47;;
59127;SDS011;44912;52.754;5.994;2023-06-19T01:36:33;9.65;;;7.03;;
59127;SDS011;44912;52.754;5.994;2023-06-19T01:39:00;9.40;;;6.78;;
59127;SDS011;44912;52.754;5.994;2023-06-19T01:41:26;9.80;;;6.55;;
59127;SDS011;44912;52.754;5.994;2023-06-19T01:43:54;9.55;;;6.53;;
59127;SDS011;44912;52.754;5.994;2023-06-19T01:46:21;10.35;;;7.18;;
59127;SDS011;44912;52.754;5.994;2023-06-19T01:48:47;12.27;;;7.18;;
59127;SDS011;44912;52.754;5.994;2023-06-19T01:51:12;9.55;;;7.18;;
59127;SDS011;44912;52.754;5.994;2023-06-19T01:53:38;10.55;;;6.70;;
59127;SDS011;44912;52.754;5.994;2023-06-19T01:56:03;9.98;;;7.10;;
59127;SDS011;44912;52.754;5.994;2023-06-19T01:58:29;10.13;;;6.85;;
59127;SDS011;44912;52.754;5.994;2023-06-19T02:00:55;9.32;;;7.15;;
59127;SDS011;44912;52.754;5.994;2023-06-19T02:03:20;8.82;;;6.60;;
59127;SDS011;44912;52.754;5.994;2023-06-19T02:05:46;9.98;;;7.15;;
59127;SDS011;44912;52.754;5.994;2023-06-19T02:08:12;9.55;;;6.45;;
59127;SDS011;44912;52.754;5.994;2023-06-19T02:10:37;9.90;;;7.20;;
59127;SDS011;44912;52.754;5.994;2023-06-19T02:13:03;9.10;;;6.70;;
59127;SDS011;44912;52.754;5.994;2023-06-19T02:15:28;9.00;;;6.65;;
59127;SDS011;44912;52.754;5.994;2023-06-19T02:17:57;9.65;;;6.93;;
59127;SDS011;44912;52.754;5.994;2023-06-19T02:20:24;10.10;;;6.80;;
59127;SDS011;44912;52.754;5.994;2023-06-19T02:22:50;10.52;;;6.20;;
59127;SDS011;44912;52.754;5.994;2023-06-19T02:25:16;9.30;;;6.65;;
59127;SDS011;44912;52.754;5.994;2023-06-19T02:27:42;8.80;;;6.50;;
59127;SDS011;44912;52.754;5.994;2023-06-19T02:30:07;10.10;;;6.45;;
59127;SDS011;44912;52.754;5.994;2023-06-19T02:32:33;9.23;;;6.25;;
59127;SDS011;44912;52.754;5.994;2023-06-19T02:34:59;8.70;;;6.35;;
59127;SDS011;44912;52.754;5.994;2023-06-19T02:37:24;10.05;;;6.28;;
59127;SDS011;44912;52.754;5.994;2023-06-19T02:39:50;8.95;;;6.40;;
59127;SDS011;44912;52.754;5.994;2023-06-19T02:42:16;10.50;;;6.18;;
59127;SDS011;44912;52.754;5.994;2023-06-19T02:44:41;9.00;;;5.95;;
59127;SDS011;44912;52.754;5.994;2023-06-19T02:47:08;8.35;;;6.05;;
59127;SDS011;44912;52.754;5.994;2023-06-19T02:49:34;9.88;;;6.68;;
59127;SDS011;44912;52.754;5.994;2023-06-19T02:51:59;9.90;;;6.03;;
59127;SDS011;44912;52.754;5.994;2023-06-19T02:54:25;11.45;;;6.90;;
59127;SDS011;44912;52.754;5.994;2023-06-19T02:56:50;11.27;;;6.35;;
59127;SDS011;44912;52.754;5.994;2023-06-19T02:59:16;10.00;;;6.40;;
59127;SDS011;44912;52.754;5.994;2023-06-19T03:01:41;11.23;;;5.75;;
59127;SDS011;44912;52.754;5.994;2023-06-19T03:04:07;8.80;;;6.10;;
59127;SDS011;44912;52.754;5.994;2023-06-19T03:06:32;8.75;;;5.88;;
59127;SDS011;44912;52.754;5.994;2023-06-19T03:09:04;10.20;;;6.18;;
59127;SDS011;44912;52.754;5.994;2023-06-19T03:11:30;9.02;;;6.43;;
59127;SDS011;44912;52.754;5.994;2023-06-19T03:13:55;10.20;;;6.35;;
59127;SDS011;44912;52.754;5.994;2023-06-19T03:16:21;9.15;;;5.07;;
59127;SDS011;44912;52.754;5.994;2023-06-19T03:18:47;7.35;;;4.35;;
59127;SDS011;44912;52.754;5.994;2023-06-19T03:21:14;7.35;;;4.18;;
59127;SDS011;44912;52.754;5.994;2023-06-19T03:23:40;6.50;;;3.50;;
59127;SDS011;44912;52.754;5.994;2023-06-19T03:26:06;6.38;;;3.55;;
59127;SDS011;44912;52.754;5.994;2023-06-19T03:28:32;7.85;;;3.60;;
59127;SDS011;44912;52.754;5.994;2023-06-19T03:30:58;5.68;;;3.10;;
59127;SDS011;44912;52.754;5.994;2023-06-19T03:33:24;7.75;;;3.20;;
59127;SDS011;44912;52.754;5.994;2023-06-19T03:35:49;5.35;;;2.70;;
59127;SDS011;44912;52.754;5.994;2023-06-19T03:38:15;7.78;;;3.30;;
59127;SDS011;44912;52.754;5.994;2023-06-19T03:40:40;7.20;;;2.97;;
59127;SDS011;44912;52.754;5.994;2023-06-19T03:43:06;5.50;;;2.80;;
59127;SDS011;44912;52.754;5.994;2023-06-19T03:45:31;6.15;;;2.80;;
59127;SDS011;44912;52.754;5.994;2023-06-19T03:47:57;6.40;;;2.85;;
59127;SDS011;44912;52.754;5.994;2023-06-19T03:50:22;5.88;;;3.15;;
59127;SDS011;44912;52.754;5.994;2023-06-19T03:52:48;5.68;;;3.03;;
59127;SDS011;44912;52.754;5.994;2023-06-19T03:55:13;7.53;;;3.80;;
59127;SDS011;44912;52.754;5.994;2023-06-19T03:57:39;6.43;;;3.50;;
59127;SDS011;44912;52.754;5.994;2023-06-19T04:00:05;7.13;;;3.72;;
59127;SDS011;44912;52.754;5.994;2023-06-19T04:02:33;8.30;;;4.00;;
59127;SDS011;44912;52.754;5.994;2023-06-19T04:04:59;6.72;;;4.13;;
59127;SDS011;44912;52.754;5.994;2023-06-19T04:07:24;7.95;;;4.40;;
59127;SDS011;44912;52.754;5.994;2023-06-19T04:09:50;7.57;;;4.20;;
59127;SDS011;44912;52.754;5.994;2023-06-19T04:12:15;7.32;;;4.57;;
59127;SDS011;44912;52.754;5.994;2023-06-19T04:14:41;7.18;;;4.00;;
59127;SDS011;44912;52.754;5.994;2023-06-19T04:17:06;7.28;;;4.78;;
59127;SDS011;44912;52.754;5.994;2023-06-19T04:19:32;8.68;;;4.63;;
59127;SDS011;44912;52.754;5.994;2023-06-19T04:21:57;11.43;;;4.40;;
59127;SDS011;44912;52.754;5.994;2023-06-19T04:24:23;7.75;;;4.88;;
59127;SDS011;44912;52.754;5.994;2023-06-19T04:26:49;9.30;;;5.00;;
59127;SDS011;44912;52.754;5.994;2023-06-19T04:29:14;10.30;;;5.40;;
59127;SDS011;44912;52.754;5.994;2023-06-19T04:31:44;8.15;;;4.30;;
59127;SDS011;44912;52.754;5.994;2023-06-19T04:34:17;7.30;;;4.43;;
59127;SDS011;44912;52.754;5.994;2023-06-19T04:36:47;8.25;;;4.45;;
59127;SDS011;44912;52.754;5.994;2023-06-19T04:39:13;7.55;;;4.57;;
59127;SDS011;44912;52.754;5.994;2023-06-19T04:41:40;7.47;;;4.38;;
59127;SDS011;44912;52.754;5.994;2023-06-19T04:44:06;6.65;;;4.38;;
59127;SDS011;44912;52.754;5.994;2023-06-19T04:46:32;7.38;;;4.75;;
59127;SDS011;44912;52.754;5.994;2023-06-19T04:48:58;7.10;;;4.88;;
59127;SDS011;44912;52.754;5.994;2023-06-19T04:51:24;7.38;;;4.97;;
59127;SDS011;44912;52.754;5.994;2023-06-19T04:53:51;8.80;;;5.15;;
59127;SDS011;44912;52.754;5.994;2023-06-19T04:56:17;9.20;;;5.03;;
59127;SDS011;44912;52.754;5.994;2023-06-19T04:58:43;8.77;;;5.22;;
59127;SDS011;44912;52.754;5.994;2023-06-19T05:01:12;8.38;;;4.88;;
59127;SDS011;44912;52.754;5.994;2023-06-19T05:03:39;9.05;;;5.65;;
59127;SDS011;44912;52.754;5.994;2023-06-19T05:06:04;9.60;;;5.43;;
59127;SDS011;44912;52.754;5.994;2023-06-19T05:08:30;9.80;;;5.57;;
59127;SDS011;44912;52.754;5.994;2023-06-19T05:10:56;12.60;;;7.07;;
59127;SDS011;44912;52.754;5.994;2023-06-19T05:13:22;11.13;;;6.97;;
59127;SDS011;44912;52.754;5.994;2023-06-19T05:15:48;9.70;;;7.43;;
59127;SDS011;44912;52.754;5.994;2023-06-19T05:18:15;11.05;;;8.13;;
59127;SDS011;44912;52.754;5.994;2023-06-19T05:20:41;12.48;;;7.97;;
59127;SDS011;44912;52.754;5.994;2023-06-19T05:23:06;10.07;;;7.55;;
59127;SDS011;44912;52.754;5.994;2023-06-19T05:25:32;9.80;;;7.47;;
59127;SDS011;44912;52.754;5.994;2023-06-19T05:27:57;8.90;;;6.53;;
59127;SDS011;44912;52.754;5.994;2023-06-19T05:30:23;11.18;;;6.07;;
59127;SDS011;44912;52.754;5.994;2023-06-19T05:32:48;8.75;;;6.07;;
59127;SDS011;44912;52.754;5.994;2023-06-19T05:35:14;10.88;;;6.30;;
59127;SDS011;44912;52.754;5.994;2023-06-19T05:37:39;9.75;;;7.20;;
59127;SDS011;44912;52.754;5.994;2023-06-19T05:40:08;10.00;;;7.50;;
59127;SDS011;44912;52.754;5.994;2023-06-19T05:42:34;10.60;;;8.80;;
59127;SDS011;44912;52.754;5.994;2023-06-19T05:45:01;10.32;;;9.20;;
59127;SDS011;44912;52.754;5.994;2023-06-19T05:47:27;12.10;;;10.80;;
59127;SDS011;44912;52.754;5.994;2023-06-19T05:49:54;13.88;;;11.48;;
59127;SDS011;44912;52.754;5.994;2023-06-19T05:52:20;14.68;;;13.13;;
59127;SDS011;44912;52.754;5.994;2023-06-19T05:54:46;16.02;;;14.32;;
59127;SDS011;44912;52.754;5.994;2023-06-19T05:57:11;16.63;;;14.93;;
59127;SDS011;44912;52.754;5.994;2023-06-19T05:59:37;18.75;;;16.83;;
59127;SDS011;44912;52.754;5.994;2023-06-19T06:02:03;20.38;;;17.17;;
59127;SDS011;44912;52.754;5.994;2023-06-19T06:04:29;19.45;;;17.17;;
59127;SDS011;44912;52.754;5.994;2023-06-19T06:06:55;21.45;;;19.15;;
59127;SDS011;44912;52.754;5.994;2023-06-19T06:09:21;22.85;;;19.13;;
59127;SDS011;44912;52.754;5.994;2023-06-19T06:11:47;23.13;;;20.67;;
59127;SDS011;44912;52.754;5.994;2023-06-19T06:14:13;23.73;;;20.42;;
59127;SDS011;44912;52.754;5.994;2023-06-19T06:16:39;24.23;;;21.05;;
59127;SDS011;44912;52.754;5.994;2023-06-19T06:19:04;27.25;;;22.88;;
59127;SDS011;44912;52.754;5.994;2023-06-19T06:21:30;26.77;;;22.40;;
59127;SDS011;44912;52.754;5.994;2023-06-19T06:23:56;29.20;;;23.48;;
59127;SDS011;44912;52.754;5.994;2023-06-19T06:26:21;29.55;;;22.92;;
59127;SDS011;44912;52.754;5.994;2023-06-19T06:28:47;26.27;;;21.50;;
59127;SDS011;44912;52.754;5.994;2023-06-19T06:31:13;25.13;;;20.42;;
59127;SDS011;44912;52.754;5.994;2023-06-19T06:33:38;26.40;;;20.10;;
59127;SDS011;44912;52.754;5.994;2023-06-19T06:36:04;26.58;;;19.17;;
59127;SDS011;44912;52.754;5.994;2023-06-19T06:38:30;23.15;;;18.08;;
59127;SDS011;44912;52.754;5.994;2023-06-19T06:40:55;20.42;;;15.70;;
59127;SDS011;44912;52.754;5.994;2023-06-19T06:43:21;17.13;;;14.18;;
59127;SDS011;44912;52.754;5.994;2023-06-19T06:45:47;16.30;;;12.57;;
59127;SDS011;44912;52.754;5.994;2023-06-19T06:48:12;14.48;;;11.20;;
59127;SDS011;44912;52.754;5.994;2023-06-19T06:50:38;11.93;;;9.38;;
59127;SDS011;44912;52.754;5.994;2023-06-19T06:53:03;11.98;;;8.70;;
59127;SDS011;44912;52.754;5.994;2023-06-19T06:55:29;10.70;;;8.27;;
59127;SDS011;44912;52.754;5.994;2023-06-19T06:57:54;12.50;;;8.63;;
59127;SDS011;44912;52.754;5.994;2023-06-19T07:00:20;11.00;;;7.93;;
59127;SDS011;44912;52.754;5.994;2023-06-19T07:02:46;11.65;;;8.32;;
59127;SDS011;44912;52.754;5.994;2023-06-19T07:05:13;11.60;;;8.77;;
59127;SDS011;44912;52.754;5.994;2023-06-19T07:07:38;10.88;;;7.40;;
59127;SDS011;44912;52.754;5.994;2023-06-19T07:10:04;9.80;;;7.78;;
59127;SDS011;44912;52.754;5.994;2023-06-19T07:12:30;10.70;;;7.70;;
59127;SDS011;44912;52.754;5.994;2023-06-19T07:14:56;8.70;;;6.50;;
59127;SDS011;44912;52.754;5.994;2023-06-19T07:17:21;9.60;;;7.40;;
59127;SDS011;44912;52.754;5.994;2023-06-19T07:19:47;9.38;;;6.82;;
59127;SDS011;44912;52.754;5.994;2023-06-19T07:22:13;10.50;;;7.22;;
59127;SDS011;44912;52.754;5.994;2023-06-19T07:24:39;9.75;;;7.18;;
59127;SDS011;44912;52.754;5.994;2023-06-19T07:27:06;9.68;;;6.78;;
59127;SDS011;44912;52.754;5.994;2023-06-19T07:29:32;10.35;;;6.32;;
59127;SDS011;44912;52.754;5.994;2023-06-19T07:31:58;8.27;;;5.80;;
59127;SDS011;44912;52.754;5.994;2023-06-19T07:34:26;9.60;;;5.80;;
59127;SDS011;44912;52.754;5.994;2023-06-19T07:36:51;9.32;;;6.50;;
59127;SDS011;44912;52.754;5.994;2023-06-19T07:39:17;9.07;;;5.40;;
59127;SDS011;44912;52.754;5.994;2023-06-19T07:41:42;7.60;;;5.70;;
59127;SDS011;44912;52.754;5.994;2023-06-19T07:44:08;8.57;;;6.25;;
59127;SDS011;44912;52.754;5.994;2023-06-19T07:46:33;8.38;;;6.32;;
59127;SDS011;44912;52.754;5.994;2023-06-19T07:48:59;10.45;;;6.38;;
59127;SDS011;44912;52.754;5.994;2023-06-19T07:51:24;11.35;;;6.15;;
59127;SDS011;44912;52.754;5.994;2023-06-19T07:53:50;9.27;;;6.20;;
59127;SDS011;44912;52.754;5.994;2023-06-19T07:56:15;8.05;;;6.05;;
59127;SDS011;44912;52.754;5.994;2023-06-19T07:58:41;9.82;;;7.10;;
59127;SDS011;44912;52.754;5.994;2023-06-19T08:01:06;10.68;;;6.90;;
59127;SDS011;44912;52.754;5.994;2023-06-19T08:03:32;9.98;;;6.70;;
59127;SDS011;44912;52.754;5.994;2023-06-19T08:05:58;8.90;;;6.63;;
59127;SDS011;44912;52.754;5.994;2023-06-19T08:08:23;10.95;;;7.70;;
59127;SDS011;44912;52.754;5.994;2023-06-19T08:10:49;9.88;;;7.72;;
59127;SDS011;44912;52.754;5.994;2023-06-19T08:13:14;10.27;;;7.85;;
59127;SDS011;44912;52.754;5.994;2023-06-19T08:15:40;11.60;;;8.35;;
59127;SDS011;44912;52.754;5.994;2023-06-19T08:18:05;12.52;;;8.45;;
59127;SDS011;44912;52.754;5.994;2023-06-19T08:20:31;12.32;;;10.10;;
59127;SDS011;44912;52.754;5.994;2023-06-19T08:22:56;13.30;;;11.25;;
59127;SDS011;44912;52.754;5.994;2023-06-19T08:25:22;17.10;;;14.52;;
59127;SDS011;44912;52.754;5.994;2023-06-19T08:27:47;20.15;;;16.65;;
59127;SDS011;44912;52.754;5.994;2023-06-19T08:30:13;21.52;;;18.15;;
59127;SDS011;44912;52.754;5.994;2023-06-19T08:32:39;18.98;;;15.60;;
59127;SDS011;44912;52.754;5.994;2023-06-19T08:35:04;21.00;;;17.45;;
59127;SDS011;44912;52.754;5.994;2023-06-19T08:37:30;19.70;;;17.60;;
59127;SDS011;44912;52.754;5.994;2023-06-19T08:39:56;22.35;;;17.33;;
59127;SDS011;44912;52.754;5.994;2023-06-19T08:42:22;22.13;;;18.77;;
59127;SDS011;44912;52.754;5.994;2023-06-19T08:44:48;20.63;;;17.08;;
59127;SDS011;44912;52.754;5.994;2023-06-19T08:47:14;20.05;;;16.10;;
59127;SDS011;44912;52.754;5.994;2023-06-19T08:49:39;17.73;;;15.82;;
59127;SDS011;44912;52.754;5.994;2023-06-19T08:52:05;17.80;;;15.88;;
59127;SDS011;44912;52.754;5.994;2023-06-19T08:54:31;19.88;;;15.98;;
59127;SDS011;44912;52.754;5.994;2023-06-19T08:57:00;16.77;;;15.02;;
59127;SDS011;44912;52.754;5.994;2023-06-19T08:59:26;17.85;;;15.43;;
59127;SDS011;44912;52.754;5.994;2023-06-19T09:01:53;19.65;;;16.38;;
59127;SDS011;44912;52.754;5.994;2023-06-19T09:04:21;20.35;;;16.30;;
59127;SDS011;44912;52.754;5.994;2023-06-19T09:06:49;18.02;;;15.80;;
59127;SDS011;44912;52.754;5.994;2023-06-19T09:09:16;16.95;;;15.15;;
59127;SDS011;44912;52.754;5.994;2023-06-19T09:12:02;19.42;;;15.70;;
59127;SDS011;44912;52.754;5.994;2023-06-19T09:14:32;18.25;;;16.33;;
59127;SDS011;44912;52.754;5.994;2023-06-19T09:17:02;19.73;;;15.67;;
59127;SDS011;44912;52.754;5.994;2023-06-19T09:19:29;20.98;;;16.58;;
59127;SDS011;44912;52.754;5.994;2023-06-19T09:22:01;18.98;;;16.20;;
59127;SDS011;44912;52.754;5.994;2023-06-19T09:24:38;20.92;;;17.63;;
59127;SDS011;44912;52.754;5.994;2023-06-19T09:27:06;20.50;;;16.52;;
59127;SDS011;44912;52.754;5.994;2023-06-19T09:29:39;21.13;;;16.75;;
59127;SDS011;44912;52.754;5.994;2023-06-19T09:32:15;20.65;;;16.63;;
59127;SDS011;44912;52.754;5.994;2023-06-19T09:34:41;20.38;;;16.13;;
59127;SDS011;44912;52.754;5.994;2023-06-19T09:37:07;19.90;;;17.80;;
59127;SDS011;44912;52.754;5.994;2023-06-19T09:39:34;24.15;;;16.40;;
59127;SDS011;44912;52.754;5.994;2023-06-19T09:42:02;19.45;;;15.45;;
59127;SDS011;44912;52.754;5.994;2023-06-19T09:44:30;17.23;;;15.10;;
59127;SDS011;44912;52.754;5.994;2023-06-19T09:47:01;18.20;;;14.75;;
59127;SDS011;44912;52.754;5.994;2023-06-19T09:49:31;17.80;;;15.02;;
59127;SDS011;44912;52.754;5.994;2023-06-19T09:51:59;16.75;;;13.93;;
59127;SDS011;44912;52.754;5.994;2023-06-19T09:54:24;20.45;;;13.75;;
59127;SDS011;44912;52.754;5.994;2023-06-19T09:56:51;15.63;;;13.75;;
59127;SDS011;44912;52.754;5.994;2023-06-19T09:59:20;16.30;;;14.25;;
59127;SDS011;44912;52.754;5.994;2023-06-19T10:01:47;17.75;;;13.32;;
59127;SDS011;44912;52.754;5.994;2023-06-19T10:04:14;17.45;;;13.32;;
59127;SDS011;44912;52.754;5.994;2023-06-19T10:06:45;18.73;;;13.77;;
59127;SDS011;44912;52.754;5.994;2023-06-19T10:09:11;16.10;;;12.80;;
59127;SDS011;44912;52.754;5.994;2023-06-19T10:11:49;14.55;;;11.98;;
59127;SDS011;44912;52.754;5.994;2023-06-19T10:14:16;13.07;;;10.80;;
59127;SDS011;44912;52.754;5.994;2023-06-19T10:16:43;14.40;;;11.50;;
59127;SDS011;44912;52.754;5.994;2023-06-19T10:19:16;13.38;;;10.90;;
59127;SDS011;44912;52.754;5.994;2023-06-19T10:21:46;13.83;;;11.30;;
59127;SDS011;44912;52.754;5.994;2023-06-19T10:24:14;13.93;;;9.75;;
59127;SDS011;44912;52.754;5.994;2023-06-19T10:26:42;13.52;;;9.65;;
59127;SDS011;44912;52.754;5.994;2023-06-19T10:29:15;14.98;;;13.35;;
59127;SDS011;44912;52.754;5.994;2023-06-19T10:31:42;16.27;;;12.70;;
59127;SDS011;44912;52.754;5.994;2023-06-19T10:34:09;17.02;;;12.88;;
59127;SDS011;44912;52.754;5.994;2023-06-19T10:36:35;19.75;;;14.68;;
59127;SDS011;44912;52.754;5.994;2023-06-19T10:39:00;16.73;;;14.50;;
59127;SDS011;44912;52.754;5.994;2023-06-19T10:41:26;17.48;;;15.60;;
59127;SDS011;44912;52.754;5.994;2023-06-19T10:43:59;20.38;;;16.95;;
59127;SDS011;44912;52.754;5.994;2023-06-19T10:46:34;19.52;;;15.43;;
59127;SDS011;44912;52.754;5.994;2023-06-19T10:49:01;19.85;;;16.33;;
59127;SDS011;44912;52.754;5.994;2023-06-19T10:51:38;21.13;;;16.70;;
59127;SDS011;44912;52.754;5.994;2023-06-19T10:54:06;22.17;;;17.25;;
59127;SDS011;44912;52.754;5.994;2023-06-19T10:56:33;18.70;;;16.42;;
59127;SDS011;44912;52.754;5.994;2023-06-19T10:59:03;20.35;;;15.40;;
59127;SDS011;44912;52.754;5.994;2023-06-19T11:01:49;20.48;;;15.18;;
59127;SDS011;44912;52.754;5.994;2023-06-19T11:04:15;21.00;;;15.35;;
59127;SDS011;44912;52.754;5.994;2023-06-19T11:06:42;16.80;;;14.50;;
59127;SDS011;44912;52.754;5.994;2023-06-19T11:09:09;18.35;;;16.10;;
59127;SDS011;44912;52.754;5.994;2023-06-19T11:11:42;22.13;;;17.65;;
59127;SDS011;44912;52.754;5.994;2023-06-19T11:14:10;21.17;;;17.43;;
59127;SDS011;44912;52.754;5.994;2023-06-19T11:16:41;22.30;;;18.17;;
59127;SDS011;44912;52.754;5.994;2023-06-19T11:19:08;21.52;;;17.02;;
59127;SDS011;44912;52.754;5.994;2023-06-19T11:21:35;16.90;;;13.02;;
59127;SDS011;44912;52.754;5.994;2023-06-19T11:24:04;19.45;;;14.70;;
59127;SDS011;44912;52.754;5.994;2023-06-19T11:26:34;20.70;;;16.85;;
59127;SDS011;44912;52.754;5.994;2023-06-19T11:29:12;23.45;;;17.55;;
59127;SDS011;44912;52.754;5.994;2023-06-19T11:31:39;19.90;;;15.68;;
59127;SDS011;44912;52.754;5.994;2023-06-19T11:34:04;19.10;;;15.93;;
59127;SDS011;44912;52.754;5.994;2023-06-19T11:36:31;21.52;;;16.05;;
59127;SDS011;44912;52.754;5.994;2023-06-19T11:38:56;16.52;;;14.57;;
59127;SDS011;44912;52.754;5.994;2023-06-19T11:41:25;18.50;;;13.52;;
59127;SDS011;44912;52.754;5.994;2023-06-19T11:44:04;17.60;;;14.77;;
59127;SDS011;44912;52.754;5.994;2023-06-19T11:46:31;18.48;;;13.40;;
59127;SDS011;44912;52.754;5.994;2023-06-19T11:49:11;16.98;;;13.38;;
59127;SDS011;44912;52.754;5.994;2023-06-19T11:51:43;17.23;;;14.10;;
59127;SDS011;44912;52.754;5.994;2023-06-19T11:54:09;16.88;;;12.07;;
59127;SDS011;44912;52.754;5.994;2023-06-19T11:56:36;17.10;;;15.30;;
59127;SDS011;44912;52.754;5.994;2023-06-19T11:59:02;17.25;;;14.90;;
59127;SDS011;44912;52.754;5.994;2023-06-19T12:01:28;16.52;;;13.38;;
59127;SDS011;44912;52.754;5.994;2023-06-19T12:03:55;18.00;;;14.45;;
59127;SDS011;44912;52.754;5.994;2023-06-19T12:06:20;19.05;;;12.18;;
59127;SDS011;44912;52.754;5.994;2023-06-19T12:08:46;16.98;;;13.02;;
59127;SDS011;44912;52.754;5.994;2023-06-19T12:11:11;18.60;;;13.75;;
59127;SDS011;44912;52.754;5.994;2023-06-19T12:13:38;15.23;;;11.80;;
59127;SDS011;44912;52.754;5.994;2023-06-19T12:16:09;16.92;;;11.90;;
59127;SDS011;44912;52.754;5.994;2023-06-19T12:18:35;15.93;;;12.18;;
59127;SDS011;44912;52.754;5.994;2023-06-19T12:21:01;18.08;;;12.38;;
59127;SDS011;44912;52.754;5.994;2023-06-19T12:23:28;14.85;;;12.55;;
59127;SDS011;44912;52.754;5.994;2023-06-19T12:25:53;15.75;;;12.55;;
59127;SDS011;44912;52.754;5.994;2023-06-19T12:28:19;11.60;;;9.52;;
59127;SDS011;44912;52.754;5.994;2023-06-19T12:30:44;13.88;;;9.35;;
59127;SDS011;44912;52.754;5.994;2023-06-19T12:33:11;12.68;;;10.52;;
59127;SDS011;44912;52.754;5.994;2023-06-19T12:35:40;17.00;;;10.77;;
59127;SDS011;44912;52.754;5.994;2023-06-19T12:38:08;13.25;;;10.02;;
59127;SDS011;44912;52.754;5.994;2023-06-19T12:40:35;12.75;;;8.80;;
59127;SDS011;44912;52.754;5.994;2023-06-19T12:43:01;10.85;;;7.85;;
59127;SDS011;44912;52.754;5.994;2023-06-19T12:45:27;12.13;;;9.45;;
59127;SDS011;44912;52.754;5.994;2023-06-19T12:47:53;12.80;;;9.18;;
59127;SDS011;44912;52.754;5.994;2023-06-19T12:50:20;14.48;;;11.43;;
59127;SDS011;44912;52.754;5.994;2023-06-19T12:52:46;15.00;;;9.88;;
59127;SDS011;44912;52.754;5.994;2023-06-19T12:55:11;15.25;;;10.38;;
59127;SDS011;44912;52.754;5.994;2023-06-19T12:57:37;12.50;;;9.32;;
59127;SDS011;44912;52.754;5.994;2023-06-19T13:00:03;11.55;;;10.15;;
59127;SDS011;44912;52.754;5.994;2023-06-19T13:02:32;13.48;;;9.70;;
59127;SDS011;44912;52.754;5.994;2023-06-19T13:04:58;12.52;;;9.85;;
59127;SDS011;44912;52.754;5.994;2023-06-19T13:07:23;12.30;;;10.98;;
59127;SDS011;44912;52.754;5.994;2023-06-19T13:09:49;13.75;;;11.45;;
59127;SDS011;44912;52.754;5.994;2023-06-19T13:12:14;14.15;;;10.15;;
59127;SDS011;44912;52.754;5.994;2023-06-19T13:14:40;13.32;;;9.88;;
59127;SDS011;44912;52.754;5.994;2023-06-19T13:17:07;11.73;;;8.35;;
59127;SDS011;44912;52.754;5.994;2023-06-19T13:19:32;11.27;;;8.18;;
59127;SDS011;44912;52.754;5.994;2023-06-19T13:21:58;11.82;;;9.90;;
59127;SDS011;44912;52.754;5.994;2023-06-19T13:24:24;11.63;;;8.90;;
59127;SDS011;44912;52.754;5.994;2023-06-19T13:26:52;11.30;;;7.30;;
59127;SDS011;44912;52.754;5.994;2023-06-19T13:29:18;11.05;;;7.65;;
59127;SDS011;44912;52.754;5.994;2023-06-19T13:31:43;9.48;;;6.68;;
59127;SDS011;44912;52.754;5.994;2023-06-19T13:34:09;9.90;;;7.30;;
59127;SDS011;44912;52.754;5.994;2023-06-19T13:36:35;11.20;;;7.57;;
59127;SDS011;44912;52.754;5.994;2023-06-19T13:39:00;10.15;;;7.55;;
59127;SDS011;44912;52.754;5.994;2023-06-19T13:41:26;10.60;;;7.43;;
59127;SDS011;44912;52.754;5.994;2023-06-19T13:43:53;12.27;;;7.07;;
59127;SDS011;44912;52.754;5.994;2023-06-19T13:46:19;10.27;;;5.97;;
59127;SDS011;44912;52.754;5.994;2023-06-19T13:48:46;9.45;;;5.70;;
59127;SDS011;44912;52.754;5.994;2023-06-19T13:51:15;10.80;;;5.72;;
59127;SDS011;44912;52.754;5.994;2023-06-19T13:53:41;12.63;;;6.13;;
59127;SDS011;44912;52.754;5.994;2023-06-19T13:56:07;9.68;;;5.45;;
59127;SDS011;44912;52.754;5.994;2023-06-19T13:58:33;9.55;;;6.38;;
59127;SDS011;44912;52.754;5.994;2023-06-19T14:00:58;9.70;;;6.20;;
59127;SDS011;44912;52.754;5.994;2023-06-19T14:03:24;8.20;;;5.20;;
59127;SDS011;44912;52.754;5.994;2023-06-19T14:05:49;8.88;;;6.20;;
59127;SDS011;44912;52.754;5.994;2023-06-19T14:08:15;10.73;;;6.00;;
59127;SDS011;44912;52.754;5.994;2023-06-19T14:10:40;8.95;;;5.20;;
59127;SDS011;44912;52.754;5.994;2023-06-19T14:13:06;9.00;;;5.28;;
59127;SDS011;44912;52.754;5.994;2023-06-19T14:15:31;8.40;;;5.43;;
59127;SDS011;44912;52.754;5.994;2023-06-19T14:17:57;7.95;;;5.05;;
59127;SDS011;44912;52.754;5.994;2023-06-19T14:20:23;11.32;;;6.05;;
59127;SDS011;44912;52.754;5.994;2023-06-19T14:22:48;9.50;;;5.20;;
59127;SDS011;44912;52.754;5.994;2023-06-19T14:25:14;8.82;;;4.97;;
59127;SDS011;44912;52.754;5.994;2023-06-19T14:27:39;7.63;;;5.05;;
59127;SDS011;44912;52.754;5.994;2023-06-19T14:30:05;8.65;;;5.60;;